createdAt,value
2018-07-27T00:04:25.639Z,1007.88
2018-07-27T00:14:25.617Z,1007.78
2018-07-27T00:24:25.724Z,1007.87
2018-07-27T00:34:25.647Z,1007.87
2018-07-27T00:44:25.700Z,1007.87
2018-07-27T00:54:25.665Z,1007.98
2018-07-27T01:04:25.708Z,1007.81
2018-07-27T01:14:25.668Z,1007.8
2018-07-27T01:24:25.634Z,1007.8
2018-07-27T01:34:25.749Z,1007.71
2018-07-27T01:44:25.674Z,1007.76
2018-07-27T01:54:25.630Z,1007.71
2018-07-27T02:04:25.685Z,1007.67
2018-07-27T02:14:25.636Z,1007.65
2018-07-27T02:24:25.707Z,1007.55
2018-07-27T02:34:25.683Z,1007.45
2018-07-27T02:44:25.758Z,1007.48
2018-07-27T02:54:25.708Z,1007.37
2018-07-27T03:04:25.675Z,1007.36
2018-07-27T03:14:25.722Z,1007.41
2018-07-27T03:24:25.680Z,1007.4
2018-07-27T03:34:25.646Z,1007.44
2018-07-27T03:44:25.706Z,1007.33
2018-07-27T03:54:25.650Z,1007.35
2018-07-27T04:04:25.736Z,1007.41
2018-07-27T04:14:25.709Z,1007.39
2018-07-27T04:24:25.691Z,1007.4
2018-07-27T04:34:25.715Z,1007.45
2018-07-27T04:44:25.679Z,1007.47
2018-07-27T04:54:25.714Z,1007.53
2018-07-27T05:04:25.670Z,1007.62
2018-07-27T05:14:25.747Z,1007.64
2018-07-27T05:24:25.722Z,1007.5
2018-07-27T05:34:25.744Z,1007.54
2018-07-27T05:44:25.725Z,1007.53
2018-07-27T05:54:25.695Z,1007.62
2018-07-27T06:04:26.757Z,1007.53
2018-07-27T06:14:25.730Z,1007.54
2018-07-27T06:24:25.705Z,1007.58
2018-07-27T06:34:25.743Z,1007.55
2018-07-27T06:44:25.715Z,1007.63
2018-07-27T06:54:25.810Z,1007.67
2018-07-27T07:04:25.727Z,1007.51
2018-07-27T07:14:25.719Z,1007.38
2018-07-27T07:24:25.754Z,1007.47
2018-07-27T07:34:25.708Z,1007.49
2018-07-27T07:44:25.771Z,1007.4
2018-07-27T07:54:25.727Z,1007.33
2018-07-27T08:04:25.730Z,1007.26
2018-07-27T08:14:25.749Z,1007.19
2018-07-27T08:24:25.723Z,1007.09
2018-07-27T08:34:25.783Z,1007.01
2018-07-27T08:44:25.735Z,1007.02
2018-07-27T08:54:25.728Z,1006.89
2018-07-27T09:04:25.757Z,1006.74
2018-07-27T09:14:25.728Z,1006.7
2018-07-27T09:24:25.941Z,1006.65
2018-07-27T09:34:25.739Z,1006.67
2018-07-27T09:44:25.817Z,1006.55
2018-07-27T09:54:25.755Z,1006.47
2018-07-27T10:04:25.859Z,1006.34
2018-07-27T10:14:25.791Z,1006.31
2018-07-27T10:24:25.750Z,1006.22
2018-07-27T10:34:25.821Z,1006.06
2018-07-27T10:44:25.791Z,1005.98
2018-07-27T10:54:25.726Z,1005.9
2018-07-27T11:04:25.817Z,1005.76
2018-07-27T11:14:25.759Z,1005.64
2018-07-27T11:24:25.837Z,1005.44
2018-07-27T11:34:25.797Z,1005.38
2018-07-27T11:44:25.744Z,1005.18
2018-07-27T11:54:25.804Z,1005.27
2018-07-27T12:04:25.793Z,1004.99
2018-07-27T12:14:26.083Z,1004.92
2018-07-27T12:24:25.805Z,1004.89
2018-07-27T12:34:25.848Z,1004.8
2018-07-27T12:44:25.857Z,1004.77
2018-07-27T12:54:25.783Z,1004.62
2018-07-27T13:04:25.944Z,1004.39
2018-07-27T13:14:25.802Z,1004.33
2018-07-27T13:34:27.817Z,1003.99
2018-07-27T13:44:25.878Z,1003.94
2018-07-27T13:54:25.865Z,1003.76
2018-07-27T14:04:25.808Z,1003.67
2018-07-27T14:14:25.981Z,1003.54
2018-07-27T14:24:25.839Z,1003.43
2018-07-27T14:34:25.889Z,1003.4
2018-07-27T14:44:25.927Z,1003.31
2018-07-27T14:54:27.855Z,1003.17
2018-07-27T15:04:25.891Z,1003.08
2018-07-27T15:14:25.861Z,1002.96
2018-07-27T15:24:25.916Z,1002.81
2018-07-27T15:34:25.925Z,1002.77
2018-07-27T15:44:25.941Z,1002.79
2018-07-27T15:54:25.892Z,1002.72
2018-07-27T16:04:25.844Z,1002.69
2018-07-27T16:14:25.905Z,1002.48
2018-07-27T16:24:25.897Z,1002.43
2018-07-27T16:34:25.871Z,1002.24
2018-07-27T16:44:25.903Z,1002.29
2018-07-27T16:54:26.220Z,1002.18
2018-07-27T17:04:25.932Z,1002.08
2018-07-27T17:14:25.870Z,1002.1
2018-07-27T17:24:25.934Z,1002.16
2018-07-27T17:34:25.916Z,1002.22
2018-07-27T17:44:25.856Z,1002.16
2018-07-27T17:54:25.970Z,1002.23
2018-07-27T18:04:25.899Z,1002.11
2018-07-27T18:14:29.249Z,1002.15
2018-07-27T18:24:30.793Z,1002.02
2018-07-27T18:34:26.007Z,1002.02
2018-07-27T18:44:26.028Z,1001.89
2018-07-27T18:54:26.852Z,1001.87
2018-07-27T19:04:35.975Z,1001.8
2018-07-27T19:14:32.745Z,1001.77
2018-07-27T19:24:35.347Z,1001.8
2018-07-27T19:34:26.009Z,1001.96
2018-07-27T19:44:38.184Z,1001.89
2018-07-27T19:54:34.339Z,1001.76
2018-07-27T20:04:33.474Z,1001.82
2018-07-27T20:14:35.992Z,1001.66
2018-07-27T20:24:36.246Z,1001.58
2018-07-27T20:34:35.958Z,1001.58
2018-07-27T20:44:26.066Z,1001.68
2018-07-27T20:54:25.913Z,1001.66
2018-07-27T21:04:26.339Z,1001.65
2018-07-27T21:14:25.936Z,1001.7
2018-07-27T21:24:25.980Z,1001.72
2018-07-27T21:34:25.940Z,1001.66
2018-07-27T21:44:25.913Z,1001.73
2018-07-27T21:54:26.287Z,1001.75
2018-07-27T22:04:26.045Z,1001.66
2018-07-27T22:14:25.991Z,1001.68
2018-07-27T22:24:25.954Z,1001.7
2018-07-27T22:34:25.919Z,1001.62
2018-07-27T22:44:25.984Z,1001.56
2018-07-27T22:54:25.961Z,1001.4
2018-07-27T23:04:26.008Z,1001.39
2018-07-27T23:14:25.987Z,1001.3
2018-07-27T23:24:26.045Z,1001.17
2018-07-27T23:34:25.994Z,1001.16
2018-07-27T23:44:25.952Z,1001.1
2018-07-27T23:54:26.053Z,1001.02
